createdAt,value
2019-03-12T00:04:58.165Z,26.20
2019-03-12T00:10:04.718Z,25.60
2019-03-12T00:15:06.387Z,32.67
2019-03-12T00:20:07.971Z,36.50
2019-03-12T00:25:12.143Z,28.47
2019-03-12T00:30:13.753Z,33.90
2019-03-12T00:35:15.509Z,28.70
2019-03-12T00:40:20.142Z,24.83
2019-03-12T00:45:22.587Z,30.40
2019-03-12T00:50:26.049Z,18.87
2019-03-12T00:55:27.687Z,28.93
2019-03-12T01:00:29.258Z,25.80
2019-03-12T01:05:30.902Z,24.57
2019-03-12T01:10:32.581Z,23.40
2019-03-12T01:15:35.358Z,33.17
2019-03-12T01:20:37.058Z,19.73
2019-03-12T01:25:40.450Z,31.80
2019-03-12T01:30:42.070Z,25.47
2019-03-12T01:35:43.697Z,17.10
2019-03-12T01:40:45.459Z,30.83
2019-03-12T01:45:52.125Z,24.23
2019-03-12T01:50:53.764Z,22.27
2019-03-12T01:55:55.471Z,21.87
2019-03-12T02:00:57.182Z,18.53
2019-03-12T02:05:58.822Z,27.27
2019-03-12T02:11:00.448Z,23.43
2019-03-12T02:16:02.034Z,26.60
2019-03-12T02:21:03.682Z,22.03
2019-03-12T02:26:05.444Z,21.47
2019-03-12T02:31:07.074Z,25.03
2019-03-12T02:36:08.858Z,25.33
2019-03-12T02:41:16.400Z,33.50
2019-03-12T02:46:20.889Z,21.37
2019-03-12T02:51:22.582Z,29.63
2019-03-12T02:56:24.577Z,27.53
2019-03-12T03:01:29.414Z,22.37
2019-03-12T03:06:42.302Z,30.63
2019-03-12T03:11:50.619Z,27.37
2019-03-12T03:16:50.723Z,27.23
2019-03-12T03:21:54.507Z,31.47
2019-03-12T03:26:56.098Z,37.27
2019-03-12T03:31:57.880Z,30.20
2019-03-12T03:37:00.353Z,33.83
2019-03-12T03:42:02.245Z,28.17
2019-03-12T03:47:06.900Z,27.00
2019-03-12T03:52:08.532Z,32.57
2019-03-12T03:57:11.587Z,32.10
2019-03-12T04:02:16.102Z,29.77
2019-03-12T04:07:17.715Z,36.97
2019-03-12T04:12:19.601Z,28.60
2019-03-12T04:17:21.183Z,36.23
2019-03-12T04:22:26.402Z,27.47
2019-03-12T04:27:29.673Z,31.77
2019-03-12T04:32:31.445Z,31.20
2019-03-12T04:37:33.055Z,32.87
2019-03-12T04:42:34.831Z,31.83
2019-03-12T04:47:36.418Z,31.10
2019-03-12T04:52:38.079Z,33.77
2019-03-12T04:57:39.740Z,38.77
2019-03-12T05:02:42.435Z,29.07
2019-03-12T05:07:45.105Z,35.13
2019-03-12T05:12:46.726Z,36.90
2019-03-12T05:17:48.389Z,30.00
2019-03-12T05:22:50.118Z,32.20
2019-03-12T05:27:51.800Z,33.57
2019-03-12T05:32:53.411Z,37.37
2019-03-12T05:37:56.912Z,33.07
2019-03-12T05:43:02.604Z,32.60
2019-03-12T05:48:05.435Z,40.73
2019-03-12T05:53:12.175Z,27.67
2019-03-12T05:58:13.965Z,27.87
2019-03-12T06:03:15.890Z,27.53
2019-03-12T06:08:17.558Z,24.43
2019-03-12T06:13:19.389Z,28.57
2019-03-12T06:18:22.118Z,29.90
2019-03-12T06:23:28.222Z,36.37
2019-03-12T06:28:31.196Z,39.93
2019-03-12T06:33:48.662Z,27.67
2019-03-12T06:39:09.867Z,31.07
2019-03-12T06:44:36.870Z,30.77
2019-03-12T06:49:58.040Z,25.77
2019-03-12T06:55:06.059Z,26.67
2019-03-12T07:00:40.345Z,30.17
2019-03-12T07:05:57.071Z,23.20
2019-03-12T07:11:16.525Z,25.77
2019-03-12T07:16:26.462Z,26.10
2019-03-12T07:21:49.681Z,23.77
2019-03-12T07:27:23.062Z,26.83
2019-03-12T07:32:52.180Z,25.07
2019-03-12T07:38:05.707Z,18.67
2019-03-12T07:43:31.862Z,24.20
2019-03-12T07:48:47.407Z,19.97
2019-03-12T07:54:07.816Z,19.17
2019-03-12T07:59:31.837Z,19.33
2019-03-12T08:04:58.719Z,20.60
2019-03-12T08:10:22.729Z,20.17
2019-03-12T08:15:50.252Z,21.07
2019-03-12T08:21:21.462Z,27.03
2019-03-12T08:26:49.817Z,18.03
2019-03-12T08:32:00.474Z,15.13
2019-03-12T08:37:16.165Z,15.83
2019-03-12T08:42:54.197Z,16.70
2019-03-12T08:48:21.416Z,25.77
2019-03-12T08:53:41.098Z,23.57
2019-03-12T08:59:00.674Z,27.17
2019-03-12T09:04:27.526Z,22.97
2019-03-12T09:09:37.289Z,20.93
2019-03-12T09:14:46.851Z,24.17
2019-03-12T09:20:11.033Z,23.83
2019-03-12T09:25:31.015Z,17.47
2019-03-12T09:30:55.559Z,21.83
2019-03-12T09:36:29.697Z,22.17
2019-03-12T09:41:49.914Z,23.07
2019-03-12T09:47:07.138Z,14.73
2019-03-12T09:52:26.924Z,16.87
2019-03-12T09:57:51.213Z,20.83
2019-03-12T10:03:30.408Z,21.87
2019-03-12T10:08:42.691Z,18.80
2019-03-12T10:14:18.885Z,21.90
2019-03-12T10:19:37.265Z,22.17
2019-03-12T10:25:07.216Z,19.27
2019-03-12T10:30:27.534Z,14.77
2019-03-12T10:35:36.046Z,13.97
2019-03-12T10:40:57.265Z,20.70
2019-03-12T10:46:10.188Z,18.90
2019-03-12T10:51:13.199Z,18.50
2019-03-12T10:56:15.165Z,16.07
2019-03-12T11:01:18.209Z,18.20
2019-03-12T11:06:19.936Z,17.13
2019-03-12T11:11:21.594Z,11.27
2019-03-12T11:16:27.227Z,12.00
2019-03-12T11:21:29.158Z,14.47
2019-03-12T11:26:30.755Z,13.03
2019-03-12T11:31:32.589Z,13.97
2019-03-12T11:36:36.106Z,16.73
2019-03-12T11:41:40.282Z,16.63
2019-03-12T11:46:45.199Z,17.30
2019-03-12T11:51:45.645Z,17.33
2019-03-12T11:56:48.813Z,19.23
2019-03-12T12:01:50.404Z,17.90
2019-03-12T12:06:52.197Z,14.77
2019-03-12T12:11:58.460Z,11.33
2019-03-12T12:17:03.427Z,14.23
2019-03-12T12:22:05.212Z,15.27
2019-03-12T12:27:12.247Z,19.20
2019-03-12T12:32:13.898Z,11.00
2019-03-12T12:37:15.611Z,15.70
2019-03-12T12:42:17.357Z,10.53
2019-03-12T12:47:21.160Z,17.83
2019-03-12T12:52:22.853Z,12.27
2019-03-12T12:57:24.467Z,14.30
2019-03-12T13:02:27.086Z,6.63
2019-03-12T13:07:28.707Z,10.23
2019-03-12T13:12:30.333Z,18.30
2019-03-12T13:17:33.433Z,17.63
2019-03-12T13:22:36.374Z,21.00
2019-03-12T13:27:42.543Z,13.13
2019-03-12T13:32:41.500Z,9.97
2019-03-12T13:37:43.314Z,14.13
2019-03-12T13:42:45.510Z,11.17
2019-03-12T13:47:51.277Z,11.23
2019-03-12T13:52:53.335Z,11.67
2019-03-12T13:57:55.022Z,13.87
2019-03-12T14:03:03.910Z,11.33
2019-03-12T14:08:05.632Z,15.10
2019-03-12T14:13:07.238Z,11.13
2019-03-12T14:18:09.221Z,9.70
2019-03-12T14:23:12.191Z,14.07
2019-03-12T14:28:16.838Z,19.27
2019-03-12T14:33:18.464Z,14.57
2019-03-12T14:38:20.246Z,10.03
2019-03-12T14:43:22.246Z,14.93
2019-03-12T14:48:46.612Z,12.73
2019-03-12T14:53:48.671Z,8.67
2019-03-12T14:58:51.390Z,15.90
2019-03-12T15:03:53.489Z,13.07
2019-03-12T15:08:55.155Z,15.27
2019-03-12T15:13:58.266Z,11.33
2019-03-12T15:18:59.990Z,9.50
2019-03-12T15:24:01.700Z,18.00
2019-03-12T15:29:03.351Z,14.20
2019-03-12T15:34:07.099Z,18.07
2019-03-12T15:39:11.035Z,14.73
2019-03-12T15:44:12.799Z,10.80
2019-03-12T15:49:14.487Z,14.40
2019-03-12T15:54:16.095Z,23.37
2019-03-12T15:59:19.501Z,17.73
2019-03-12T16:04:21.250Z,14.57
2019-03-12T16:09:22.987Z,17.20
2019-03-12T16:14:28.273Z,16.20
2019-03-12T16:19:30.289Z,16.27
2019-03-12T16:24:36.752Z,12.77
2019-03-12T16:29:40.650Z,15.67
2019-03-12T16:34:43.290Z,14.47
2019-03-12T16:39:47.230Z,14.63
2019-03-12T16:44:49.055Z,27.80
2019-03-12T16:49:50.827Z,15.27
2019-03-12T16:54:52.575Z,17.27
2019-03-12T16:59:54.290Z,15.03
2019-03-12T17:05:03.951Z,16.20
2019-03-12T17:10:06.426Z,15.43
2019-03-12T17:15:09.020Z,14.53
2019-03-12T17:20:14.825Z,12.73
2019-03-12T17:25:17.311Z,13.57
2019-03-12T17:30:19.175Z,14.50
2019-03-12T17:35:21.798Z,14.63
2019-03-12T17:40:25.422Z,15.17
2019-03-12T17:45:27.074Z,16.20
2019-03-12T17:50:29.028Z,13.17
2019-03-12T17:55:32.308Z,14.43
2019-03-12T18:00:35.397Z,14.50
2019-03-12T18:05:38.330Z,16.97
2019-03-12T18:10:39.986Z,12.70
2019-03-12T18:15:41.780Z,14.80
2019-03-12T18:20:44.181Z,15.07
2019-03-12T18:25:51.200Z,15.87
2019-03-12T18:30:52.775Z,18.77
2019-03-12T18:36:00.725Z,19.90
2019-03-12T18:41:02.573Z,15.30
2019-03-12T18:46:04.201Z,19.42
2019-03-12T18:51:05.849Z,17.47
2019-03-12T18:56:07.978Z,16.07
2019-03-12T19:01:10.254Z,19.43
2019-03-12T19:06:12.410Z,13.60
2019-03-12T19:11:15.002Z,8.50
2019-03-12T19:16:19.846Z,3.77
2019-03-12T19:21:25.397Z,6.70
2019-03-12T19:26:29.329Z,8.23
2019-03-12T19:31:50.593Z,5.40
2019-03-12T19:36:52.226Z,7.93
2019-03-12T19:41:55.673Z,6.30
2019-03-12T19:46:58.178Z,3.83
2019-03-12T19:52:02.319Z,5.10
2019-03-12T19:57:05.392Z,6.97
2019-03-12T20:02:16.122Z,3.53
2019-03-12T20:07:14.082Z,8.83
2019-03-12T20:12:37.882Z,5.83
2019-03-12T20:17:59.317Z,8.07
2019-03-12T20:23:27.231Z,7.50
2019-03-12T20:28:57.209Z,7.83
2019-03-12T20:34:27.512Z,9.23
2019-03-12T20:39:47.460Z,6.30
2019-03-12T20:45:12.417Z,5.13
2019-03-12T20:50:37.362Z,8.03
2019-03-12T20:55:57.153Z,8.40
2019-03-12T21:01:29.360Z,10.97
2019-03-12T21:06:46.383Z,5.63
2019-03-12T21:12:06.346Z,9.57
2019-03-12T21:17:31.666Z,13.83
2019-03-12T21:22:42.418Z,4.77
2019-03-12T21:28:03.668Z,9.77
2019-03-12T21:33:15.243Z,14.73
2019-03-12T21:38:12.202Z,10.43
2019-03-12T21:43:16.299Z,16.43
2019-03-12T21:48:17.960Z,9.97
2019-03-12T21:53:20.029Z,13.83
2019-03-12T21:58:23.468Z,10.67
2019-03-12T22:03:25.101Z,13.70
2019-03-12T22:08:27.312Z,13.73
2019-03-12T22:13:29.067Z,11.90
2019-03-12T22:18:33.915Z,10.67
2019-03-12T22:23:39.138Z,11.77
2019-03-12T22:28:42.043Z,13.50
2019-03-12T22:33:43.844Z,19.67
2019-03-12T22:38:45.876Z,22.17
2019-03-12T22:43:47.540Z,18.53
2019-03-12T22:48:49.366Z,12.40
2019-03-12T22:53:51.144Z,13.03
2019-03-12T22:58:52.733Z,15.20
2019-03-12T23:03:55.439Z,15.77
2019-03-12T23:09:02.722Z,14.93
2019-03-12T23:14:05.270Z,15.60
2019-03-12T23:19:09.333Z,17.17
2019-03-12T23:24:11.041Z,22.17
2019-03-12T23:29:12.645Z,17.17
2019-03-12T23:34:14.271Z,17.47
2019-03-12T23:39:15.900Z,14.67
2019-03-12T23:44:19.735Z,21.57
2019-03-12T23:49:21.547Z,17.93
2019-03-12T23:54:23.735Z,22.70
2019-03-12T23:59:25.423Z,18.70
